sensor_id;sensor_type;location;lat;lon;timestamp;pressure;altitude;pressure_sealevel;temperature;humidity
66560;BME280;53413;49.878;8.142;2023-02-12T00:01:10;102073.91;;;5.87;100.00
66560;BME280;53413;49.878;8.142;2023-02-12T00:03:36;102067.03;;;5.89;100.00
66560;BME280;53413;49.878;8.142;2023-02-12T00:06:02;102073.13;;;5.93;100.00
66560;BME280;53413;49.878;8.142;2023-02-12T00:08:28;102075.75;;;5.96;100.00
66560;BME280;53413;49.878;8.142;2023-02-12T00:10:54;102076.66;;;5.96;100.00
66560;BME280;53413;49.878;8.142;2023-02-12T00:13:19;102071.44;;;5.96;100.00
66560;BME280;53413;49.878;8.142;2023-02-12T00:15:44;102072.38;;;6.00;100.00
66560;BME280;53413;49.878;8.142;2023-02-12T00:18:10;102074.16;;;6.03;100.00
66560;BME280;53413;49.878;8.142;2023-02-12T00:20:36;102073.34;;;6.05;100.00
66560;BME280;53413;49.878;8.142;2023-02-12T00:23:03;102075.81;;;5.97;100.00
66560;BME280;53413;49.878;8.142;2023-02-12T00:25:28;102070.69;;;6.02;100.00
66560;BME280;53413;49.878;8.142;2023-02-12T00:27:54;102072.50;;;6.09;100.00
66560;BME280;53413;49.878;8.142;2023-02-12T00:30:19;102078.63;;;6.11;100.00
66560;BME280;53413;49.878;8.142;2023-02-12T00:32:45;102079.50;;;6.12;100.00
66560;BME280;53413;49.878;8.142;2023-02-12T00:35:10;102082.97;;;6.12;100.00
66560;BME280;53413;49.878;8.142;2023-02-12T00:37:36;102073.41;;;6.11;100.00
66560;BME280;53413;49.878;8.142;2023-02-12T00:40:01;102078.63;;;6.11;100.00
66560;BME280;53413;49.878;8.142;2023-02-12T00:42:26;102080.25;;;6.05;100.00
66560;BME280;53413;49.878;8.142;2023-02-12T00:44:52;102081.94;;;6.01;100.00
66560;BME280;53413;49.878;8.142;2023-02-12T00:47:18;102081.00;;;5.99;100.00
66560;BME280;53413;49.878;8.142;2023-02-12T00:49:43;102084.59;;;6.04;100.00
66560;BME280;53413;49.878;8.142;2023-02-12T00:52:09;102080.25;;;6.03;100.00
66560;BME280;53413;49.878;8.142;2023-02-12T00:54:34;102088.13;;;6.08;100.00
66560;BME280;53413;49.878;8.142;2023-02-12T00:57:00;102083.88;;;6.14;100.00
66560;BME280;53413;49.878;8.142;2023-02-12T00:59:25;102084.84;;;6.21;100.00
66560;BME280;53413;49.878;8.142;2023-02-12T01:01:53;102080.53;;;6.23;100.00
66560;BME280;53413;49.878;8.142;2023-02-12T01:04:19;102081.44;;;6.25;100.00
66560;BME280;53413;49.878;8.142;2023-02-12T01:06:45;102085.75;;;6.25;100.00
66560;BME280;53413;49.878;8.142;2023-02-12T01:09:11;102085.69;;;6.22;100.00
66560;BME280;53413;49.878;8.142;2023-02-12T01:11:36;102083.94;;;6.21;100.00
66560;BME280;53413;49.878;8.142;2023-02-12T01:14:03;102088.28;;;6.20;100.00
66560;BME280;53413;49.878;8.142;2023-02-12T01:16:29;102093.38;;;6.14;100.00
66560;BME280;53413;49.878;8.142;2023-02-12T01:18:56;102096.00;;;6.12;100.00
66560;BME280;53413;49.878;8.142;2023-02-12T01:21:29;102091.63;;;6.10;100.00
66560;BME280;53413;49.878;8.142;2023-02-12T01:23:56;102089.06;;;6.14;100.00
66560;BME280;53413;49.878;8.142;2023-02-12T01:26:22;102090.00;;;6.20;100.00
66560;BME280;53413;49.878;8.142;2023-02-12T01:28:53;102077.88;;;6.22;100.00
66560;BME280;53413;49.878;8.142;2023-02-12T01:31:22;102089.19;;;6.22;100.00
66560;BME280;53413;49.878;8.142;2023-02-12T01:33:52;102090.00;;;6.18;100.00
66560;BME280;53413;49.878;8.142;2023-02-12T01:36:18;102083.06;;;6.19;100.00
66560;BME280;53413;49.878;8.142;2023-02-12T01:38:44;102079.53;;;6.13;100.00
66560;BME280;53413;49.878;8.142;2023-02-12T01:41:12;102082.91;;;6.08;100.00
66560;BME280;53413;49.878;8.142;2023-02-12T01:43:39;102079.41;;;6.04;100.00
66560;BME280;53413;49.878;8.142;2023-02-12T01:46:05;102078.41;;;5.99;100.00
66560;BME280;53413;49.878;8.142;2023-02-12T01:48:38;102082.72;;;5.97;100.00
66560;BME280;53413;49.878;8.142;2023-02-12T01:51:08;102083.56;;;5.94;100.00
66560;BME280;53413;49.878;8.142;2023-02-12T01:53:39;102079.25;;;5.95;100.00
66560;BME280;53413;49.878;8.142;2023-02-12T01:56:06;102080.94;;;5.93;100.00
66560;BME280;53413;49.878;8.142;2023-02-12T01:58:37;102078.34;;;5.93;100.00
66560;BME280;53413;49.878;8.142;2023-02-12T02:01:06;102075.69;;;5.91;100.00
66560;BME280;53413;49.878;8.142;2023-02-12T02:03:35;102073.09;;;5.90;100.00
66560;BME280;53413;49.878;8.142;2023-02-12T02:06:06;102078.22;;;5.86;100.00
66560;BME280;53413;49.878;8.142;2023-02-12T02:08:35;102077.31;;;5.83;100.00
66560;BME280;53413;49.878;8.142;2023-02-12T02:11:00;102072.09;;;5.81;100.00
66560;BME280;53413;49.878;8.142;2023-02-12T02:13:46;102073.84;;;5.82;100.00
66560;BME280;53413;49.878;8.142;2023-02-12T02:16:31;102079.06;;;5.82;100.00
66560;BME280;53413;49.878;8.142;2023-02-12T02:19:16;102073.88;;;5.85;100.00
66560;BME280;53413;49.878;8.142;2023-02-12T02:22:01;102074.78;;;5.88;100.00
66560;BME280;53413;49.878;8.142;2023-02-12T02:27:44;102062.56;;;5.83;100.00
66560;BME280;53413;49.878;8.142;2023-02-12T02:30:34;102069.47;;;5.80;100.00
66560;BME280;53413;49.878;8.142;2023-02-12T02:41:08;102066.00;;;5.79;100.00
66560;BME280;53413;49.878;8.142;2023-02-12T02:43:49;102066.78;;;5.75;100.00
66560;BME280;53413;49.878;8.142;2023-02-12T02:46:40;102067.72;;;5.79;100.00
66560;BME280;53413;49.878;8.142;2023-02-12T02:49:11;102069.38;;;5.74;100.00
66560;BME280;53413;49.878;8.142;2023-02-12T02:51:42;102067.47;;;5.62;100.00
66560;BME280;53413;49.878;8.142;2023-02-12T02:54:14;102064.84;;;5.62;100.00
66560;BME280;53413;49.878;8.142;2023-02-12T02:56:44;102070.09;;;5.63;100.00
66560;BME280;53413;49.878;8.142;2023-02-12T02:59:17;102062.38;;;5.68;100.00
66560;BME280;53413;49.878;8.142;2023-02-12T03:02:05;102058.94;;;5.72;100.00
66560;BME280;53413;49.878;8.142;2023-02-12T03:04:38;102060.63;;;5.67;100.00
66560;BME280;53413;49.878;8.142;2023-02-12T03:07:11;102064.06;;;5.66;100.00
66560;BME280;53413;49.878;8.142;2023-02-12T03:09:42;102071.81;;;5.63;100.00
66560;BME280;53413;49.878;8.142;2023-02-12T03:12:15;102070.03;;;5.60;100.00
66560;BME280;53413;49.878;8.142;2023-02-12T03:15:29;102061.34;;;5.58;100.00
66560;BME280;53413;49.878;8.142;2023-02-12T03:17:36;102063.94;;;5.60;100.00
66560;BME280;53413;49.878;8.142;2023-02-12T03:20:25;102066.66;;;5.66;100.00
66560;BME280;53413;49.878;8.142;2023-02-12T03:23:09;102059.00;;;5.75;100.00
66560;BME280;53413;49.878;8.142;2023-02-12T03:25:57;102062.41;;;5.71;100.00
66560;BME280;53413;49.878;8.142;2023-02-12T03:28:36;102059.78;;;5.69;100.00
66560;BME280;53413;49.878;8.142;2023-02-12T03:36:48;102058.13;;;5.75;100.00
66560;BME280;53413;49.878;8.142;2023-02-12T03:45:03;102063.47;;;5.85;100.00
66560;BME280;53413;49.878;8.142;2023-02-12T03:47:30;102071.22;;;5.81;100.00
66560;BME280;53413;49.878;8.142;2023-02-12T03:52:32;102072.91;;;5.79;100.00
66560;BME280;53413;49.878;8.142;2023-02-12T03:54:58;102068.59;;;5.79;100.00
66560;BME280;53413;49.878;8.142;2023-02-12T03:57:28;102067.78;;;5.83;100.00
66560;BME280;53413;49.878;8.142;2023-02-12T03:59:57;102068.66;;;5.82;100.00
66560;BME280;53413;49.878;8.142;2023-02-12T04:02:23;102064.38;;;5.86;100.00
66560;BME280;53413;49.878;8.142;2023-02-12T04:04:49;102062.56;;;5.83;100.00
66560;BME280;53413;49.878;8.142;2023-02-12T04:07:15;102063.44;;;5.82;100.00
66560;BME280;53413;49.878;8.142;2023-02-12T04:09:41;102073.03;;;5.85;100.00
66560;BME280;53413;49.878;8.142;2023-02-12T04:13:00;102074.72;;;5.83;100.00
66560;BME280;53413;49.878;8.142;2023-02-12T04:22:59;102081.56;;;5.76;100.00
66560;BME280;53413;49.878;8.142;2023-02-12T04:28:42;102085.97;;;5.83;100.00
66560;BME280;53413;49.878;8.142;2023-02-12T04:31:14;102086.88;;;5.85;100.00
66560;BME280;53413;49.878;8.142;2023-02-12T04:39:22;102091.28;;;5.88;100.00
66560;BME280;53413;49.878;8.142;2023-02-12T04:41:49;102093.88;;;5.88;100.00
66560;BME280;53413;49.878;8.142;2023-02-12T04:44:26;102099.00;;;5.83;100.00
66560;BME280;53413;49.878;8.142;2023-02-12T04:46:52;102094.63;;;5.79;100.00
66560;BME280;53413;49.878;8.142;2023-02-12T04:49:19;102094.63;;;5.81;100.00
66560;BME280;53413;49.878;8.142;2023-02-12T04:51:45;102095.53;;;5.81;100.00
66560;BME280;53413;49.878;8.142;2023-02-12T04:54:12;102104.19;;;5.83;100.00
66560;BME280;53413;49.878;8.142;2023-02-12T04:56:38;102094.75;;;5.89;100.00
66560;BME280;53413;49.878;8.142;2023-02-12T04:59:03;102099.19;;;5.96;100.00
66560;BME280;53413;49.878;8.142;2023-02-12T05:01:29;102095.72;;;5.97;100.00
66560;BME280;53413;49.878;8.142;2023-02-12T05:03:54;102097.47;;;5.98;100.00
66560;BME280;53413;49.878;8.142;2023-02-12T05:06:19;102096.63;;;5.97;100.00
66560;BME280;53413;49.878;8.142;2023-02-12T05:08:45;102094.97;;;6.03;100.00
66560;BME280;53413;49.878;8.142;2023-02-12T05:11:10;102093.31;;;6.08;100.00
66560;BME280;53413;49.878;8.142;2023-02-12T05:13:37;102090.78;;;6.11;100.00
66560;BME280;53413;49.878;8.142;2023-02-12T05:16:03;102083.81;;;6.10;100.00
66560;BME280;53413;49.878;8.142;2023-02-12T05:18:30;102087.31;;;6.12;100.00
66560;BME280;53413;49.878;8.142;2023-02-12T05:20:56;102092.53;;;6.13;100.00
66560;BME280;53413;49.878;8.142;2023-02-12T05:23:25;102097.78;;;6.16;100.00
66560;BME280;53413;49.878;8.142;2023-02-12T05:25:50;102091.69;;;6.14;100.00
66560;BME280;53413;49.878;8.142;2023-02-12T05:28:15;102083.88;;;6.14;100.00
66560;BME280;53413;49.878;8.142;2023-02-12T05:30:41;102089.94;;;6.15;100.00
66560;BME280;53413;49.878;8.142;2023-02-12T05:33:06;102089.97;;;6.16;100.00
66560;BME280;53413;49.878;8.142;2023-02-12T05:35:33;102095.19;;;6.20;100.00
66560;BME280;53413;49.878;8.142;2023-02-12T05:37:59;102095.25;;;6.21;100.00
66560;BME280;53413;49.878;8.142;2023-02-12T05:40:24;102088.22;;;6.15;100.00
66560;BME280;53413;49.878;8.142;2023-02-12T05:42:49;102087.31;;;6.13;100.00
66560;BME280;53413;49.878;8.142;2023-02-12T05:45:15;102085.47;;;6.05;100.00
66560;BME280;53413;49.878;8.142;2023-02-12T05:47:40;102088.97;;;6.05;100.00
66560;BME280;53413;49.878;8.142;2023-02-12T05:50:06;102089.75;;;6.03;100.00
66560;BME280;53413;49.878;8.142;2023-02-12T05:52:32;102084.47;;;5.98;100.00
66560;BME280;53413;49.878;8.142;2023-02-12T05:54:57;102091.28;;;5.88;100.00
66560;BME280;53413;49.878;8.142;2023-02-12T05:57:23;102087.75;;;5.84;100.00
66560;BME280;53413;49.878;8.142;2023-02-12T05:59:48;102093.78;;;5.82;100.00
66560;BME280;53413;49.878;8.142;2023-02-12T06:02:13;102084.16;;;5.78;100.00
66560;BME280;53413;49.878;8.142;2023-02-12T06:04:39;102085.00;;;5.75;100.00
66560;BME280;53413;49.878;8.142;2023-02-12T06:07:04;102086.69;;;5.70;100.00
66560;BME280;53413;49.878;8.142;2023-02-12T06:09:31;102093.59;;;5.69;100.00
66560;BME280;53413;49.878;8.142;2023-02-12T06:11:56;102090.13;;;5.69;100.00
66560;BME280;53413;49.878;8.142;2023-02-12T06:14:23;102096.97;;;5.64;100.00
66560;BME280;53413;49.878;8.142;2023-02-12T06:16:50;102093.38;;;5.55;100.00
66560;BME280;53413;49.878;8.142;2023-02-12T06:19:16;102094.09;;;5.47;100.00
66560;BME280;53413;49.878;8.142;2023-02-12T06:21:42;102095.66;;;5.35;100.00
66560;BME280;53413;49.878;8.142;2023-02-12T06:24:10;102094.56;;;5.22;100.00
66560;BME280;53413;49.878;8.142;2023-02-12T06:26:35;102105.59;;;5.11;100.00
66560;BME280;53413;49.878;8.142;2023-02-12T06:29:01;102108.06;;;5.03;100.00
66560;BME280;53413;49.878;8.142;2023-02-12T06:31:31;102116.66;;;4.99;100.00
66560;BME280;53413;49.878;8.142;2023-02-12T06:34:01;102107.97;;;4.97;100.00
66560;BME280;53413;49.878;8.142;2023-02-12T06:36:27;102115.75;;;4.97;100.00
66560;BME280;53413;49.878;8.142;2023-02-12T06:38:52;102116.53;;;4.91;100.00
66560;BME280;53413;49.878;8.142;2023-02-12T06:41:18;102114.84;;;4.95;100.00
66560;BME280;53413;49.878;8.142;2023-02-12T06:43:43;102114.06;;;4.99;100.00
66560;BME280;53413;49.878;8.142;2023-02-12T06:46:09;102118.53;;;5.06;100.00
66560;BME280;53413;49.878;8.142;2023-02-12T06:48:35;102122.09;;;5.11;100.00
66560;BME280;53413;49.878;8.142;2023-02-12T06:51:09;102128.22;;;5.15;100.00
66560;BME280;53413;49.878;8.142;2023-02-12T06:53:35;102122.28;;;5.23;100.00
66560;BME280;53413;49.878;8.142;2023-02-12T06:56:02;102126.78;;;5.32;100.00
66560;BME280;53413;49.878;8.142;2023-02-12T06:58:28;102129.44;;;5.34;100.00
66560;BME280;53413;49.878;8.142;2023-02-12T07:00:53;102123.41;;;5.36;100.00
66560;BME280;53413;49.878;8.142;2023-02-12T07:03:19;102127.72;;;5.36;100.00
66560;BME280;53413;49.878;8.142;2023-02-12T07:05:44;102138.00;;;5.30;100.00
66560;BME280;53413;49.878;8.142;2023-02-12T07:08:10;102141.53;;;5.33;100.00
66560;BME280;53413;49.878;8.142;2023-02-12T07:10:35;102134.78;;;5.43;100.00
66560;BME280;53413;49.878;8.142;2023-02-12T07:13:01;102132.31;;;5.51;100.00
66560;BME280;53413;49.878;8.142;2023-02-12T07:15:26;102138.50;;;5.59;100.00
66560;BME280;53413;49.878;8.142;2023-02-12T07:17:52;102138.66;;;5.67;100.00
66560;BME280;53413;49.878;8.142;2023-02-12T07:20:17;102148.22;;;5.68;100.00
66560;BME280;53413;49.878;8.142;2023-02-12T07:22:42;102148.13;;;5.63;100.00
66560;BME280;53413;49.878;8.142;2023-02-12T07:25:08;102143.78;;;5.64;100.00
66560;BME280;53413;49.878;8.142;2023-02-12T07:27:36;102155.22;;;5.74;100.00
66560;BME280;53413;49.878;8.142;2023-02-12T07:30:02;102146.72;;;5.82;100.00
66560;BME280;53413;49.878;8.142;2023-02-12T07:32:28;102150.19;;;5.84;100.00
66560;BME280;53413;49.878;8.142;2023-02-12T07:34:53;102146.94;;;5.98;100.00
66560;BME280;53413;49.878;8.142;2023-02-12T07:37:18;102153.19;;;6.06;100.00
66560;BME280;53413;49.878;8.142;2023-02-12T07:39:47;102151.50;;;6.10;100.00
66560;BME280;53413;49.878;8.142;2023-02-12T07:42:12;102155.84;;;6.11;100.00
66560;BME280;53413;49.878;8.142;2023-02-12T07:44:39;102146.25;;;6.08;100.00
66560;BME280;53413;49.878;8.142;2023-02-12T07:47:04;102151.63;;;6.21;100.00
66560;BME280;53413;49.878;8.142;2023-02-12T07:49:30;102155.25;;;6.32;100.00
66560;BME280;53413;49.878;8.142;2023-02-12T07:51:55;102161.38;;;6.34;100.00
66560;BME280;53413;49.878;8.142;2023-02-12T07:54:21;102163.22;;;6.43;100.00
66560;BME280;53413;49.878;8.142;2023-02-12T07:56:46;102164.25;;;6.54;100.00
66560;BME280;53413;49.878;8.142;2023-02-12T07:59:15;102167.75;;;6.58;100.00
66560;BME280;53413;49.878;8.142;2023-02-12T08:01:46;102161.75;;;6.60;100.00
66560;BME280;53413;49.878;8.142;2023-02-12T08:04:14;102162.75;;;6.73;100.00
66560;BME280;53413;49.878;8.142;2023-02-12T08:06:43;102159.34;;;6.79;100.00
66560;BME280;53413;49.878;8.142;2023-02-12T08:09:11;102166.31;;;6.82;100.00
66560;BME280;53413;49.878;8.142;2023-02-12T08:11:37;102158.44;;;6.75;100.00
66560;BME280;53413;49.878;8.142;2023-02-12T08:14:03;102157.75;;;6.89;100.00
66560;BME280;53413;49.878;8.142;2023-02-12T08:16:30;102160.44;;;6.98;100.00
66560;BME280;53413;49.878;8.142;2023-02-12T08:18:56;102162.28;;;7.08;100.00
66560;BME280;53413;49.878;8.142;2023-02-12T08:21:24;102156.34;;;7.22;100.00
66560;BME280;53413;49.878;8.142;2023-02-12T08:23:52;102159.00;;;7.25;100.00
66560;BME280;53413;49.878;8.142;2023-02-12T08:26:23;102157.38;;;7.38;100.00
66560;BME280;53413;49.878;8.142;2023-02-12T08:29:01;102166.13;;;7.46;100.00
66560;BME280;53413;49.878;8.142;2023-02-12T08:31:36;102161.81;;;7.45;100.00
66560;BME280;53413;49.878;8.142;2023-02-12T08:34:02;102172.31;;;7.56;100.00
66560;BME280;53413;49.878;8.142;2023-02-12T08:36:30;102174.03;;;7.54;100.00
66560;BME280;53413;49.878;8.142;2023-02-12T08:38:59;102168.94;;;7.63;100.00
66560;BME280;53413;49.878;8.142;2023-02-12T08:41:27;102174.19;;;7.68;100.00
66560;BME280;53413;49.878;8.142;2023-02-12T08:43:54;102176.00;;;7.80;100.00
66560;BME280;53413;49.878;8.142;2023-02-12T08:46:26;102180.44;;;7.90;100.00
66560;BME280;53413;49.878;8.142;2023-02-12T08:48:53;102182.28;;;8.02;100.00
66560;BME280;53413;49.878;8.142;2023-02-12T08:51:22;102181.47;;;8.11;100.00
66560;BME280;53413;49.878;8.142;2023-02-12T08:53:52;102190.22;;;8.19;100.00
66560;BME280;53413;49.878;8.142;2023-02-12T08:56:18;102186.75;;;8.20;100.00
66560;BME280;53413;49.878;8.142;2023-02-12T08:58:43;102190.28;;;8.27;100.00
66560;BME280;53413;49.878;8.142;2023-02-12T09:01:11;102188.63;;;8.38;100.00
66560;BME280;53413;49.878;8.142;2023-02-12T09:03:37;102192.13;;;8.42;100.00
66560;BME280;53413;49.878;8.142;2023-02-12T09:06:05;102183.41;;;8.43;100.00
66560;BME280;53413;49.878;8.142;2023-02-12T09:08:31;102186.97;;;8.50;100.00
66560;BME280;53413;49.878;8.142;2023-02-12T09:10:56;102187.91;;;8.59;100.00
66560;BME280;53413;49.878;8.142;2023-02-12T09:13:23;102190.59;;;8.78;100.00
66560;BME280;53413;49.878;8.142;2023-02-12T09:15:49;102185.41;;;8.97;100.00
66560;BME280;53413;49.878;8.142;2023-02-12T09:18:14;102186.34;;;9.14;100.00
66560;BME280;53413;49.878;8.142;2023-02-12T09:20:43;102183.75;;;9.23;100.00
66560;BME280;53413;49.878;8.142;2023-02-12T09:23:13;102189.84;;;9.22;100.00
66560;BME280;53413;49.878;8.142;2023-02-12T09:25:44;102187.25;;;9.26;100.00
66560;BME280;53413;49.878;8.142;2023-02-12T09:28:11;102191.63;;;9.27;100.00
66560;BME280;53413;49.878;8.142;2023-02-12T09:30:37;102189.00;;;9.27;100.00
66560;BME280;53413;49.878;8.142;2023-02-12T09:33:04;102192.50;;;9.30;100.00
66560;BME280;53413;49.878;8.142;2023-02-12T09:35:29;102189.88;;;9.35;100.00
66560;BME280;53413;49.878;8.142;2023-02-12T09:37:55;102196.00;;;9.46;100.00
66560;BME280;53413;49.878;8.142;2023-02-12T09:40:30;102199.53;;;9.61;100.00
66560;BME280;53413;49.878;8.142;2023-02-12T09:45:28;102191.69;;;9.72;100.00
66560;BME280;53413;49.878;8.142;2023-02-12T09:48:52;102189.94;;;9.81;100.00
66560;BME280;53413;49.878;8.142;2023-02-12T09:50:59;102189.09;;;9.92;100.00
66560;BME280;53413;49.878;8.142;2023-02-12T09:53:29;102191.66;;;9.99;100.00
66560;BME280;53413;49.878;8.142;2023-02-12T09:55:55;102193.44;;;10.02;100.00
66560;BME280;53413;49.878;8.142;2023-02-12T09:58:30;102190.81;;;10.04;100.00
66560;BME280;53413;49.878;8.142;2023-02-12T10:00:57;102188.19;;;10.10;100.00
66560;BME280;53413;49.878;8.142;2023-02-12T10:03:24;102194.28;;;10.20;100.00
66560;BME280;53413;49.878;8.142;2023-02-12T10:05:53;102196.03;;;10.24;100.00
66560;BME280;53413;49.878;8.142;2023-02-12T10:11:15;102199.50;;;10.32;100.00
66560;BME280;53413;49.878;8.142;2023-02-12T10:25:25;102203.72;;;10.93;100.00
66560;BME280;53413;49.878;8.142;2023-02-12T10:27:55;102192.34;;;10.96;100.00
66560;BME280;53413;49.878;8.142;2023-02-12T10:30:34;102195.78;;;11.04;100.00
66560;BME280;53413;49.878;8.142;2023-02-12T10:33:08;102194.91;;;11.02;100.00
66560;BME280;53413;49.878;8.142;2023-02-12T10:35:43;102194.09;;;10.91;100.00
66560;BME280;53413;49.878;8.142;2023-02-12T10:38:18;102189.72;;;10.90;100.00
66560;BME280;53413;49.878;8.142;2023-02-12T10:40:45;102195.88;;;10.76;100.00
66560;BME280;53413;49.878;8.142;2023-02-12T10:43:12;102181.94;;;10.71;100.00
66560;BME280;53413;49.878;8.142;2023-02-12T10:45:39;102180.16;;;10.76;100.00
66560;BME280;53413;49.878;8.142;2023-02-12T10:53:29;102182.75;;;10.87;100.00
66560;BME280;53413;49.878;8.142;2023-02-12T10:58:38;102171.47;;;10.68;100.00
66560;BME280;53413;49.878;8.142;2023-02-12T11:01:14;102178.41;;;10.85;100.00
66560;BME280;53413;49.878;8.142;2023-02-12T11:03:41;102166.09;;;10.93;100.00
66560;BME280;53413;49.878;8.142;2023-02-12T11:06:22;102166.09;;;10.93;100.00
66560;BME280;53413;49.878;8.142;2023-02-12T11:08:49;102163.41;;;11.08;100.00
66560;BME280;53413;49.878;8.142;2023-02-12T11:11:29;102168.66;;;11.08;100.00
66560;BME280;53413;49.878;8.142;2023-02-12T11:14:16;102156.34;;;11.20;100.00
66560;BME280;53413;49.878;8.142;2023-02-12T11:16:53;102154.59;;;11.16;100.00
66560;BME280;53413;49.878;8.142;2023-02-12T11:19:27;102148.50;;;11.12;100.00
66560;BME280;53413;49.878;8.142;2023-02-12T11:22:07;102144.91;;;11.27;100.00
66560;BME280;53413;49.878;8.142;2023-02-12T11:24:35;102151.84;;;11.37;100.00
66560;BME280;53413;49.878;8.142;2023-02-12T11:29:36;102135.84;;;11.68;100.00
66560;BME280;53413;49.878;8.142;2023-02-12T11:32:04;102134.78;;;11.88;100.00
66560;BME280;53413;49.878;8.142;2023-02-12T11:34:33;102131.28;;;11.89;100.00
66560;BME280;53413;49.878;8.142;2023-02-12T11:36:59;102124.16;;;12.07;100.00
66560;BME280;53413;49.878;8.142;2023-02-12T11:39:32;102124.91;;;12.18;100.00
66560;BME280;53413;49.878;8.142;2023-02-12T11:42:02;102122.22;;;12.23;100.00
66560;BME280;53413;49.878;8.142;2023-02-12T11:44:40;102116.81;;;12.35;100.00
66560;BME280;53413;49.878;8.142;2023-02-12T11:47:31;102121.22;;;12.33;100.00
66560;BME280;53413;49.878;8.142;2023-02-12T11:52:42;102118.63;;;12.30;100.00
66560;BME280;53413;49.878;8.142;2023-02-12T11:55:20;102119.56;;;12.26;100.00
66560;BME280;53413;49.878;8.142;2023-02-12T11:58:02;102126.81;;;12.00;100.00
66560;BME280;53413;49.878;8.142;2023-02-12T12:00:32;102125.97;;;12.00;100.00
66560;BME280;53413;49.878;8.142;2023-02-12T12:03:28;102115.56;;;11.84;100.00
66560;BME280;53413;49.878;8.142;2023-02-12T12:06:22;102109.63;;;11.62;100.00
66560;BME280;53413;49.878;8.142;2023-02-12T12:08:55;102113.22;;;11.53;100.00
66560;BME280;53413;49.878;8.142;2023-02-12T12:13:58;102101.06;;;11.42;100.00
66560;BME280;53413;49.878;8.142;2023-02-12T12:16:32;102099.38;;;11.33;100.00
66560;BME280;53413;49.878;8.142;2023-02-12T12:19:33;102102.78;;;11.46;100.00
66560;BME280;53413;49.878;8.142;2023-02-12T12:25:09;102101.84;;;11.54;100.00
66560;BME280;53413;49.878;8.142;2023-02-12T12:27:42;102103.50;;;11.65;100.00
66560;BME280;53413;49.878;8.142;2023-02-12T12:30:47;102099.03;;;11.76;100.00
66560;BME280;53413;49.878;8.142;2023-02-12T12:33:47;102089.28;;;11.88;100.00
66560;BME280;53413;49.878;8.142;2023-02-12T12:41:32;102088.28;;;11.99;100.00
66560;BME280;53413;49.878;8.142;2023-02-12T12:47:32;102088.13;;;12.15;100.00
66560;BME280;53413;49.878;8.142;2023-02-12T12:52:53;102077.38;;;12.34;100.00
66560;BME280;53413;49.878;8.142;2023-02-12T13:03:28;102071.47;;;12.16;100.00
66560;BME280;53413;49.878;8.142;2023-02-12T13:06:21;102063.75;;;12.00;100.00
66560;BME280;53413;49.878;8.142;2023-02-12T13:09:02;102067.16;;;12.09;100.00
66560;BME280;53413;49.878;8.142;2023-02-12T13:16:56;102054.09;;;12.03;100.00
66560;BME280;53413;49.878;8.142;2023-02-12T13:24:56;102052.97;;;12.25;100.00
66560;BME280;53413;49.878;8.142;2023-02-12T13:27:31;102055.63;;;12.24;100.00
66560;BME280;53413;49.878;8.142;2023-02-12T13:35:32;102052.28;;;12.09;100.00
66560;BME280;53413;49.878;8.142;2023-02-12T13:37:59;102049.66;;;12.09;100.00
66560;BME280;53413;49.878;8.142;2023-02-12T13:40:27;102048.84;;;12.03;100.00
66560;BME280;53413;49.878;8.142;2023-02-12T13:43:05;102046.28;;;11.95;100.00
66560;BME280;53413;49.878;8.142;2023-02-12T14:02:02;102034.91;;;11.01;100.00
66560;BME280;53413;49.878;8.142;2023-02-12T14:04:43;102034.88;;;11.02;100.00
66560;BME280;53413;49.878;8.142;2023-02-12T14:07:14;102033.13;;;11.03;100.00
66560;BME280;53413;49.878;8.142;2023-02-12T14:10:00;102033.91;;;11.13;100.00
66560;BME280;53413;49.878;8.142;2023-02-12T14:18:21;102030.38;;;11.20;100.00
66560;BME280;53413;49.878;8.142;2023-02-12T14:20:47;102027.75;;;11.20;100.00
66560;BME280;53413;49.878;8.142;2023-02-12T14:23:24;102031.31;;;11.11;100.00
66560;BME280;53413;49.878;8.142;2023-02-12T14:33:41;102026.13;;;11.05;100.00
66560;BME280;53413;49.878;8.142;2023-02-12T14:36:14;102024.41;;;11.01;100.00
66560;BME280;53413;49.878;8.142;2023-02-12T14:41:24;102020.97;;;10.91;100.00
66560;BME280;53413;49.878;8.142;2023-02-12T14:54:33;102012.38;;;10.70;100.00
66560;BME280;53413;49.878;8.142;2023-02-12T14:57:06;102010.63;;;10.71;100.00
66560;BME280;53413;49.878;8.142;2023-02-12T14:59:38;102012.41;;;10.62;100.00
66560;BME280;53413;49.878;8.142;2023-02-12T15:02:05;102019.41;;;10.63;100.00
66560;BME280;53413;49.878;8.142;2023-02-12T15:04:35;102018.56;;;10.60;100.00
66560;BME280;53413;49.878;8.142;2023-02-12T15:07:08;102018.59;;;10.58;100.00
66560;BME280;53413;49.878;8.142;2023-02-12T15:09:41;102009.84;;;10.56;100.00
66560;BME280;53413;49.878;8.142;2023-02-12T15:12:19;102002.91;;;10.51;100.00
66560;BME280;53413;49.878;8.142;2023-02-12T15:15:03;102004.63;;;10.47;100.00
66560;BME280;53413;49.878;8.142;2023-02-12T15:17:33;102004.66;;;10.45;100.00
66560;BME280;53413;49.878;8.142;2023-02-12T15:20:19;102009.94;;;10.36;100.00
66560;BME280;53413;49.878;8.142;2023-02-12T15:22:47;102003.88;;;10.22;100.00
66560;BME280;53413;49.878;8.142;2023-02-12T15:30:41;102007.41;;;10.14;100.00
66560;BME280;53413;49.878;8.142;2023-02-12T15:33:07;102010.91;;;10.07;100.00
66560;BME280;53413;49.878;8.142;2023-02-12T15:35:38;102010.94;;;9.99;100.00
66560;BME280;53413;49.878;8.142;2023-02-12T15:38:18;102009.22;;;9.94;100.00
66560;BME280;53413;49.878;8.142;2023-02-12T15:40:56;102004.91;;;9.85;100.00
66560;BME280;53413;49.878;8.142;2023-02-12T15:43:26;102012.78;;;9.74;100.00
66560;BME280;53413;49.878;8.142;2023-02-12T15:45:52;102011.03;;;9.68;100.00